createdAt,value
2023-03-11T00:02:16.237Z,8.70
2023-03-11T00:04:44.250Z,8.60
2023-03-11T00:07:12.250Z,8.60
2023-03-11T00:09:39.285Z,8.60
2023-03-11T00:12:06.430Z,8.50
2023-03-11T00:14:33.387Z,8.50
2023-03-11T00:17:00.367Z,8.50
2023-03-11T00:19:27.540Z,8.50
2023-03-11T00:21:54.459Z,8.50
2023-03-11T00:24:21.385Z,8.50
2023-03-11T00:26:48.306Z,8.50
2023-03-11T00:29:15.227Z,8.50
2023-03-11T00:31:42.140Z,8.50
2023-03-11T00:34:09.132Z,8.50
2023-03-11T00:36:36.056Z,8.50
2023-03-11T00:39:06.728Z,8.50
2023-03-11T00:41:34.448Z,8.50
2023-03-11T00:44:01.464Z,8.50
2023-03-11T00:46:31.191Z,8.50
2023-03-11T00:48:58.395Z,8.50
2023-03-11T00:51:25.384Z,8.40
2023-03-11T00:53:52.550Z,8.40
2023-03-11T00:56:19.484Z,8.40
2023-03-11T00:58:46.707Z,8.40
2023-03-11T01:01:15.045Z,8.30
2023-03-11T01:03:42.048Z,8.30
2023-03-11T01:06:10.765Z,8.30
2023-03-11T01:08:38.030Z,8.30
2023-03-11T01:11:05.914Z,8.30
2023-03-11T01:13:33.233Z,8.30
2023-03-11T01:16:01.124Z,8.30
2023-03-11T01:18:28.782Z,8.30
2023-03-11T01:20:55.722Z,8.20
2023-03-11T01:23:23.051Z,8.10
2023-03-11T01:25:50.023Z,8.00
2023-03-11T01:28:17.358Z,8.00
2023-03-11T01:30:44.587Z,7.90
2023-03-11T01:33:20.558Z,7.80
2023-03-11T01:35:49.361Z,7.80
2023-03-11T01:38:17.277Z,7.70
2023-03-11T01:40:45.978Z,7.80
2023-03-11T01:43:33.118Z,7.60
2023-03-11T01:46:02.312Z,7.70
2023-03-11T01:48:30.293Z,7.60
2023-03-11T01:50:57.274Z,7.60
2023-03-11T01:53:24.668Z,7.70
2023-03-11T01:55:51.760Z,7.70
2023-03-11T01:58:22.410Z,7.60
2023-03-11T02:00:49.629Z,7.60
2023-03-11T02:03:27.648Z,7.60
2023-03-11T02:05:55.991Z,7.60
2023-03-11T02:08:23.470Z,7.60
2023-03-11T02:10:52.547Z,7.50
2023-03-11T02:13:20.067Z,7.50
2023-03-11T02:15:47.165Z,7.50
2023-03-11T02:18:20.378Z,7.50
2023-03-11T02:21:07.690Z,7.50
2023-03-11T02:23:43.948Z,7.50
2023-03-11T02:26:21.175Z,7.50
2023-03-11T02:28:50.285Z,7.40
2023-03-11T02:31:17.407Z,7.40
2023-03-11T02:33:46.660Z,7.40
2023-03-11T02:36:40.872Z,7.40
2023-03-11T02:39:10.775Z,7.40
2023-03-11T02:41:40.815Z,7.30
2023-03-11T02:44:09.690Z,7.30
2023-03-11T02:46:38.831Z,7.30
2023-03-11T02:49:06.473Z,7.30
2023-03-11T02:51:34.217Z,7.30
2023-03-11T02:54:04.024Z,7.20
2023-03-11T02:56:31.916Z,7.20
2023-03-11T02:58:59.723Z,7.20
2023-03-11T03:01:28.757Z,7.20
2023-03-11T03:03:56.070Z,7.10
2023-03-11T03:06:23.095Z,7.10
2023-03-11T03:08:51.571Z,6.60
2023-03-11T03:11:18.531Z,6.10
2023-03-11T03:13:46.419Z,5.80
2023-03-11T03:16:13.498Z,5.50
2023-03-11T03:18:40.526Z,5.30
2023-03-11T03:21:08.902Z,5.20
2023-03-11T03:23:37.836Z,5.10
2023-03-11T03:26:05.529Z,5.20
2023-03-11T03:28:35.754Z,5.20
2023-03-11T03:31:03.986Z,5.10
2023-03-11T03:33:31.890Z,5.10
2023-03-11T03:35:58.875Z,4.90
2023-03-11T03:38:30.310Z,4.90
2023-03-11T03:40:57.409Z,4.90
2023-03-11T03:43:24.512Z,4.90
2023-03-11T03:45:58.536Z,4.80
2023-03-11T03:48:28.504Z,4.70
2023-03-11T03:50:55.977Z,4.70
2023-03-11T03:53:22.955Z,4.60
2023-03-11T03:55:51.079Z,4.70
2023-03-11T03:58:19.748Z,4.40
2023-03-11T04:00:46.853Z,4.40
2023-03-11T04:03:14.156Z,4.30
2023-03-11T04:05:48.088Z,4.20
2023-03-11T04:08:15.394Z,4.20
2023-03-11T04:10:43.119Z,4.10
2023-03-11T04:13:10.380Z,4.10
2023-03-11T04:15:40.525Z,4.00
2023-03-11T04:18:07.866Z,4.10
2023-03-11T04:20:34.857Z,4.10
2023-03-11T04:23:01.947Z,3.90
2023-03-11T04:25:28.887Z,3.80
2023-03-11T04:27:55.921Z,3.80
2023-03-11T04:30:23.052Z,3.70
2023-03-11T04:32:54.925Z,3.60
2023-03-11T04:35:22.098Z,3.50
2023-03-11T04:37:49.038Z,3.50
2023-03-11T04:40:16.313Z,3.50
2023-03-11T04:42:43.354Z,3.50
2023-03-11T04:45:11.278Z,3.50
2023-03-11T04:47:39.729Z,3.50
2023-03-11T04:50:07.215Z,3.50
2023-03-11T04:52:34.232Z,3.40
2023-03-11T04:55:01.577Z,3.40
2023-03-11T04:57:28.710Z,3.30
2023-03-11T04:59:57.258Z,3.30
2023-03-11T05:02:24.288Z,3.20
2023-03-11T05:04:55.395Z,3.10
2023-03-11T05:07:22.607Z,3.10
2023-03-11T05:09:50.562Z,2.90
2023-03-11T05:12:17.541Z,3.00
2023-03-11T05:14:48.860Z,2.90
2023-03-11T05:17:18.704Z,2.80
2023-03-11T05:19:47.355Z,2.80
2023-03-11T05:22:21.119Z,2.80
2023-03-11T05:24:48.158Z,2.70
2023-03-11T05:27:18.198Z,2.80
2023-03-11T05:29:48.220Z,2.70
2023-03-11T05:32:16.027Z,2.70
2023-03-11T05:34:45.374Z,2.60
2023-03-11T05:37:12.808Z,2.60
2023-03-11T05:39:39.807Z,2.60
2023-03-11T05:42:07.850Z,2.60
2023-03-11T05:44:35.962Z,2.60
2023-03-11T05:47:03.499Z,2.70
2023-03-11T05:49:32.200Z,2.60
2023-03-11T05:51:59.301Z,2.60
2023-03-11T05:54:28.006Z,2.50
2023-03-11T05:56:55.956Z,2.40
2023-03-11T05:59:24.149Z,2.40
2023-03-11T06:01:56.937Z,2.40
2023-03-11T06:04:24.783Z,2.40
2023-03-11T06:06:52.118Z,2.30
2023-03-11T06:09:22.084Z,2.40
2023-03-11T06:11:49.671Z,2.30
2023-03-11T06:14:18.627Z,2.30
2023-03-11T06:16:49.303Z,2.30
2023-03-11T06:19:17.017Z,2.20
2023-03-11T06:21:48.209Z,2.20
2023-03-11T06:24:17.013Z,2.20
2023-03-11T06:26:44.542Z,2.10
2023-03-11T06:29:14.763Z,2.10
2023-03-11T06:31:42.509Z,2.00
2023-03-11T06:34:12.412Z,2.00
2023-03-11T06:36:39.585Z,1.90
2023-03-11T06:39:07.075Z,1.90
2023-03-11T06:41:36.191Z,1.90
2023-03-11T06:44:05.131Z,1.80
2023-03-11T06:46:33.589Z,1.90
2023-03-11T06:49:00.527Z,1.90
2023-03-11T06:51:29.001Z,1.80
2023-03-11T06:53:55.968Z,1.90
2023-03-11T06:56:24.112Z,1.90
2023-03-11T06:58:56.423Z,1.90
2023-03-11T07:01:26.176Z,1.80
2023-03-11T07:03:55.139Z,1.80
2023-03-11T07:06:24.646Z,1.90
2023-03-11T07:08:54.218Z,1.80
2023-03-11T07:11:25.932Z,1.70
2023-03-11T07:13:57.086Z,1.70
2023-03-11T07:16:25.586Z,1.70
2023-03-11T07:18:59.118Z,1.70
2023-03-11T07:21:26.141Z,1.70
2023-03-11T07:23:56.833Z,1.80
2023-03-11T07:26:24.469Z,1.70
2023-03-11T07:28:52.877Z,1.80
2023-03-11T07:31:21.268Z,1.70
2023-03-11T07:33:48.210Z,1.60
2023-03-11T07:36:16.846Z,1.60
2023-03-11T07:38:44.278Z,1.50
2023-03-11T07:41:11.864Z,1.60
2023-03-11T07:43:39.552Z,1.50
2023-03-11T07:46:07.969Z,1.60
2023-03-11T07:48:35.971Z,1.50
2023-03-11T07:51:07.746Z,1.50
2023-03-11T07:53:34.918Z,1.60
2023-03-11T07:56:02.660Z,1.40
2023-03-11T07:58:29.773Z,1.50
2023-03-11T08:00:57.190Z,1.60
2023-03-11T08:03:24.820Z,1.50
2023-03-11T08:05:51.818Z,1.50
2023-03-11T08:08:18.747Z,1.60
2023-03-11T08:10:45.652Z,1.60
2023-03-11T08:13:12.551Z,1.50
2023-03-11T08:15:39.483Z,1.60
2023-03-11T08:18:06.505Z,1.70
2023-03-11T08:20:33.471Z,1.70
2023-03-11T08:23:00.416Z,1.60
2023-03-11T08:25:27.360Z,1.60
2023-03-11T08:27:54.299Z,1.70
2023-03-11T08:30:21.311Z,1.60
2023-03-11T08:32:49.402Z,1.70
2023-03-11T08:35:16.916Z,1.80
2023-03-11T08:37:44.040Z,1.80
2023-03-11T08:40:11.474Z,1.80
2023-03-11T08:42:38.399Z,1.80
2023-03-11T08:45:05.633Z,1.70
2023-03-11T08:47:36.465Z,1.80
2023-03-11T08:50:04.387Z,1.70
2023-03-11T08:52:31.341Z,1.80
2023-03-11T08:54:58.280Z,1.80
2023-03-11T08:57:25.298Z,1.70
2023-03-11T08:59:52.176Z,1.70
2023-03-11T09:02:19.154Z,1.70
2023-03-11T09:04:46.354Z,1.60
2023-03-11T09:07:13.908Z,1.80
2023-03-11T09:09:40.861Z,1.90
2023-03-11T09:12:08.320Z,1.90
2023-03-11T09:14:39.448Z,1.90
2023-03-11T09:17:06.935Z,1.90
2023-03-11T09:19:34.071Z,1.80
2023-03-11T09:22:01.561Z,1.90
2023-03-11T09:24:28.642Z,1.80
2023-03-11T09:26:55.637Z,1.90
2023-03-11T09:29:22.561Z,1.90
2023-03-11T09:31:49.558Z,1.80
2023-03-11T09:34:16.503Z,1.90
2023-03-11T09:36:43.910Z,2.00
2023-03-11T09:39:10.844Z,2.00
2023-03-11T09:41:55.706Z,2.00
2023-03-11T09:44:46.154Z,2.10
2023-03-11T09:47:24.264Z,2.00
2023-03-11T09:49:51.245Z,2.00
2023-03-11T09:52:36.967Z,2.00
2023-03-11T09:55:05.539Z,1.90
2023-03-11T09:57:33.994Z,1.80
2023-03-11T10:00:02.146Z,1.80
2023-03-11T10:02:40.169Z,1.50
2023-03-11T10:05:12.507Z,1.70
2023-03-11T10:07:45.850Z,1.70
2023-03-11T10:10:13.661Z,1.70
2023-03-11T10:12:58.586Z,1.70
2023-03-11T10:15:28.558Z,1.80
2023-03-11T10:18:14.027Z,1.90
2023-03-11T10:21:00.349Z,2.00
2023-03-11T10:23:27.407Z,2.10
2023-03-11T10:25:57.478Z,2.20
2023-03-11T10:28:28.766Z,2.30
2023-03-11T10:31:22.231Z,2.40
2023-03-11T10:33:52.482Z,2.50
2023-03-11T10:36:24.315Z,2.60
2023-03-11T10:38:52.440Z,2.80
2023-03-11T10:41:19.378Z,2.80
2023-03-11T10:43:55.064Z,2.70
2023-03-11T10:46:26.463Z,2.60
2023-03-11T10:48:53.392Z,2.20
2023-03-11T10:51:23.033Z,2.00
2023-03-11T10:53:52.345Z,1.90
2023-03-11T10:56:39.041Z,1.90
2023-03-11T10:59:19.001Z,2.10
2023-03-11T11:01:54.176Z,2.30
2023-03-11T11:04:36.264Z,2.50
2023-03-11T11:07:22.377Z,2.50
2023-03-11T11:10:09.220Z,2.60
2023-03-11T11:12:36.207Z,2.80
2023-03-11T11:15:03.173Z,2.80
2023-03-11T11:17:34.308Z,2.80
2023-03-11T11:20:13.103Z,2.70
2023-03-11T11:22:47.690Z,2.60
2023-03-11T11:25:34.962Z,2.50
2023-03-11T11:28:21.060Z,2.70
2023-03-11T11:30:58.572Z,2.90
2023-03-11T11:33:25.616Z,3.00
2023-03-11T11:35:57.162Z,3.00
2023-03-11T11:38:25.329Z,3.10
2023-03-11T11:40:53.040Z,3.00
2023-03-11T11:43:21.661Z,2.90
2023-03-11T11:45:59.613Z,3.00
2023-03-11T11:48:33.814Z,3.10
2023-03-11T11:51:02.591Z,3.20
2023-03-11T11:53:48.729Z,3.00
2023-03-11T11:56:15.672Z,3.00
2023-03-11T11:58:42.610Z,3.20
2023-03-11T12:01:14.324Z,3.30
2023-03-11T12:03:53.571Z,3.90
2023-03-11T12:06:26.673Z,3.20
2023-03-11T12:08:56.845Z,3.30
2023-03-11T12:11:34.369Z,3.30
2023-03-11T12:14:08.043Z,3.50
2023-03-11T12:16:34.977Z,3.60
2023-03-11T12:19:01.924Z,3.60
2023-03-11T12:21:41.137Z,3.60
2023-03-11T12:24:32.817Z,3.50
2023-03-11T12:27:02.656Z,3.30
2023-03-11T12:29:31.724Z,3.30
2023-03-11T12:31:59.914Z,3.20
2023-03-11T12:34:28.287Z,3.10
2023-03-11T12:36:57.409Z,3.30
2023-03-11T12:39:28.730Z,3.40
2023-03-11T12:42:11.043Z,3.50
2023-03-11T12:44:38.397Z,3.70
2023-03-11T12:47:08.426Z,3.90
2023-03-11T12:49:44.103Z,3.80
2023-03-11T12:52:14.049Z,3.70
2023-03-11T12:54:44.260Z,3.40
2023-03-11T12:57:17.727Z,3.20
2023-03-11T12:59:48.046Z,3.20
2023-03-11T13:02:30.238Z,2.80
2023-03-11T13:05:15.916Z,2.40
2023-03-11T13:07:45.932Z,2.40
2023-03-11T13:10:15.259Z,2.80
2023-03-11T13:12:45.181Z,3.10
2023-03-11T13:15:18.237Z,3.20
2023-03-11T13:18:01.060Z,3.10
2023-03-11T13:20:38.311Z,3.10
2023-03-11T13:23:10.000Z,3.10
2023-03-11T13:25:38.476Z,3.10
2023-03-11T13:28:08.247Z,3.00
2023-03-11T13:30:39.577Z,2.80
2023-03-11T13:33:27.155Z,2.70
2023-03-11T13:36:04.196Z,2.70
2023-03-11T13:38:56.726Z,2.60
2023-03-11T13:41:30.297Z,2.50
2023-03-11T13:44:01.342Z,2.60
2023-03-11T13:46:35.838Z,2.80
2023-03-11T13:49:15.094Z,2.80
2023-03-11T13:51:43.699Z,2.80
2023-03-11T13:54:30.884Z,3.00
2023-03-11T13:57:02.096Z,3.20
2023-03-11T13:59:33.806Z,2.90
2023-03-11T14:02:00.819Z,3.10
2023-03-11T14:04:32.339Z,3.10
2023-03-11T14:06:59.581Z,2.90
2023-03-11T14:09:27.877Z,2.90
2023-03-11T14:11:57.231Z,2.80
2023-03-11T14:14:27.167Z,2.90
2023-03-11T14:16:54.545Z,2.80
2023-03-11T14:19:21.832Z,2.90
2023-03-11T14:21:50.714Z,3.10
2023-03-11T14:24:25.406Z,3.10
2023-03-11T14:26:56.284Z,3.20
2023-03-11T14:29:31.188Z,3.10
2023-03-11T14:31:58.250Z,2.90
2023-03-11T14:34:27.681Z,2.90
2023-03-11T14:36:57.107Z,2.90
2023-03-11T14:39:27.096Z,2.90
2023-03-11T14:41:59.360Z,2.90
2023-03-11T14:44:27.149Z,2.80
2023-03-11T14:46:56.642Z,2.80
2023-03-11T14:49:24.054Z,2.80
2023-03-11T14:51:57.550Z,2.70
2023-03-11T14:54:27.253Z,2.80
2023-03-11T14:57:01.912Z,2.90
2023-03-11T14:59:32.440Z,2.80
2023-03-11T15:02:04.625Z,2.80
2023-03-11T15:04:34.205Z,2.70
2023-03-11T15:07:01.977Z,2.90
2023-03-11T15:09:29.688Z,2.90
2023-03-11T15:12:01.185Z,2.80
2023-03-11T15:14:32.834Z,2.80
2023-03-11T15:17:33.775Z,2.80
2023-03-11T15:20:07.587Z,2.80
2023-03-11T15:22:41.050Z,3.00
2023-03-11T15:25:18.623Z,3.00
2023-03-11T15:27:46.071Z,3.10
2023-03-11T15:30:21.174Z,3.10
2023-03-11T15:32:48.775Z,3.00
2023-03-11T15:35:17.272Z,3.00
2023-03-11T15:37:45.235Z,2.90
2023-03-11T15:40:12.367Z,2.90
2023-03-11T15:42:39.487Z,2.80
2023-03-11T15:45:09.605Z,2.80
2023-03-11T15:47:36.650Z,2.70
2023-03-11T15:50:27.289Z,2.80
2023-03-11T15:52:57.572Z,2.80
2023-03-11T15:55:25.899Z,2.80
2023-03-11T15:58:13.097Z,2.80
2023-03-11T16:00:41.129Z,2.80
2023-03-11T16:03:08.126Z,2.80
2023-03-11T16:05:35.133Z,2.90
2023-03-11T16:08:02.065Z,3.00
2023-03-11T16:10:29.221Z,3.00
2023-03-11T16:12:56.296Z,2.80
2023-03-11T16:15:49.660Z,2.80
2023-03-11T16:18:16.773Z,2.80
2023-03-11T16:20:45.205Z,2.80
2023-03-11T16:23:23.195Z,2.80
2023-03-11T16:25:50.228Z,2.80
2023-03-11T16:28:17.482Z,2.70
2023-03-11T16:30:44.436Z,2.70
2023-03-11T16:33:11.528Z,2.70
2023-03-11T16:35:38.610Z,2.70
2023-03-11T16:38:06.961Z,2.70
2023-03-11T16:40:33.927Z,2.60
2023-03-11T16:43:03.003Z,2.60
2023-03-11T16:45:30.199Z,2.60
2023-03-11T16:47:57.124Z,2.70
2023-03-11T16:50:24.473Z,2.60
2023-03-11T16:52:52.256Z,2.50
2023-03-11T16:55:19.483Z,2.50
2023-03-11T16:57:46.546Z,2.50
2023-03-11T17:00:14.941Z,2.60
2023-03-11T17:02:41.956Z,2.60
2023-03-11T17:05:09.683Z,2.60
2023-03-11T17:07:39.405Z,2.50
2023-03-11T17:10:07.549Z,2.50
2023-03-11T17:12:34.547Z,2.50
2023-03-11T17:15:01.577Z,2.50
2023-03-11T17:17:28.764Z,2.40
2023-03-11T17:19:55.661Z,2.40
2023-03-11T17:22:22.636Z,2.30
2023-03-11T17:24:49.594Z,2.40
2023-03-11T17:27:16.724Z,2.40
2023-03-11T17:29:43.620Z,2.30
2023-03-11T17:32:16.816Z,2.30
2023-03-11T17:34:44.115Z,2.30
2023-03-11T17:37:11.093Z,2.30
2023-03-11T17:39:38.047Z,2.10
2023-03-11T17:42:05.071Z,2.10
2023-03-11T17:44:48.386Z,1.90
2023-03-11T17:47:20.033Z,1.90
2023-03-11T17:49:47.784Z,1.80
2023-03-11T17:52:14.841Z,1.90
2023-03-11T17:54:41.755Z,1.80
2023-03-11T17:57:08.778Z,1.80
2023-03-11T17:59:35.747Z,1.80
2023-03-11T18:02:02.869Z,1.80
2023-03-11T18:04:29.817Z,1.80
2023-03-11T18:06:56.873Z,1.80
2023-03-11T18:09:23.773Z,1.90
2023-03-11T18:11:50.685Z,1.80
2023-03-11T18:14:17.598Z,1.80
2023-03-11T18:16:44.669Z,1.80
2023-03-11T18:19:11.669Z,1.80
2023-03-11T18:21:38.832Z,1.80
2023-03-11T18:24:06.044Z,1.70
2023-03-11T18:26:32.961Z,1.60
2023-03-11T18:29:00.243Z,1.60
2023-03-11T18:31:28.005Z,1.50
2023-03-11T18:33:56.520Z,1.50
2023-03-11T18:36:28.460Z,1.50
2023-03-11T18:38:57.499Z,1.40
2023-03-11T18:41:24.945Z,1.40
2023-03-11T18:43:57.460Z,1.30
2023-03-11T18:46:25.572Z,1.30
2023-03-11T18:48:57.540Z,1.20
2023-03-11T18:51:25.487Z,1.20
2023-03-11T18:53:52.565Z,1.20
2023-03-11T18:56:20.016Z,1.10
2023-03-11T18:58:47.199Z,1.10
2023-03-11T19:01:15.713Z,1.10
2023-03-11T19:03:43.276Z,1.00
2023-03-11T19:06:11.513Z,0.90
2023-03-11T19:08:38.592Z,0.90
2023-03-11T19:11:06.717Z,0.90
2023-03-11T19:13:46.134Z,0.90
2023-03-11T19:16:14.862Z,0.90
2023-03-11T19:18:41.863Z,0.80
2023-03-11T19:21:10.788Z,0.80
2023-03-11T19:23:37.733Z,0.80
2023-03-11T19:26:04.706Z,0.70
2023-03-11T19:28:31.678Z,0.80
2023-03-11T19:30:59.069Z,0.80
2023-03-11T19:33:26.616Z,0.80
2023-03-11T19:35:54.753Z,0.80
2023-03-11T19:38:22.312Z,0.70
2023-03-11T19:40:59.704Z,0.70
2023-03-11T19:43:26.833Z,0.70
2023-03-11T19:45:53.816Z,0.60
2023-03-11T19:48:20.821Z,0.60
2023-03-11T19:50:48.446Z,0.60
2023-03-11T19:53:15.610Z,0.60
2023-03-11T19:55:44.053Z,0.60
2023-03-11T19:58:11.156Z,0.50
2023-03-11T20:00:39.936Z,0.60
2023-03-11T20:03:07.332Z,0.60
2023-03-11T20:05:41.396Z,0.50
2023-03-11T20:08:08.963Z,0.50
2023-03-11T20:10:40.040Z,0.50
2023-03-11T20:13:07.305Z,0.50
2023-03-11T20:15:34.523Z,0.40
2023-03-11T20:18:03.669Z,0.40
2023-03-11T20:20:34.090Z,0.40
2023-03-11T20:23:02.031Z,0.40
2023-03-11T20:25:32.350Z,0.40
2023-03-11T20:28:00.144Z,0.30
2023-03-11T20:30:27.799Z,0.40
2023-03-11T20:32:55.009Z,0.30
2023-03-11T20:35:22.345Z,0.40
2023-03-11T20:37:49.325Z,0.30
2023-03-11T20:40:17.195Z,0.30
2023-03-11T20:42:47.295Z,0.40
2023-03-11T20:45:21.880Z,0.40
2023-03-11T20:47:54.037Z,0.30
2023-03-11T20:50:21.812Z,0.20
2023-03-11T20:52:48.935Z,0.30
2023-03-11T20:55:15.962Z,0.20
2023-03-11T20:57:42.926Z,0.20
2023-03-11T21:00:11.786Z,0.20
2023-03-11T21:02:39.547Z,0.20
2023-03-11T21:05:07.776Z,0.10
2023-03-11T21:07:34.830Z,0.10
2023-03-11T21:10:02.781Z,0.20
2023-03-11T21:12:31.318Z,0.20
2023-03-11T21:14:58.466Z,0.20
2023-03-11T21:17:25.519Z,0.20
2023-03-11T21:19:52.620Z,0.20
2023-03-11T21:22:19.635Z,0.20
2023-03-11T21:24:50.713Z,0.10
2023-03-11T21:27:17.698Z,0.10
2023-03-11T21:29:44.793Z,0.10
2023-03-11T21:32:11.944Z,0.10
2023-03-11T21:34:38.896Z,0.10
2023-03-11T21:37:05.938Z,0.10
2023-03-11T21:39:32.971Z,0.10
2023-03-11T21:41:59.999Z,0.20
2023-03-11T21:44:27.139Z,0.10
2023-03-11T21:46:54.311Z,0.00
2023-03-11T21:49:21.615Z,0.00
2023-03-11T21:51:48.724Z,0.00
2023-03-11T21:54:16.440Z,0.10
2023-03-11T21:56:43.459Z,0.10
2023-03-11T21:59:10.568Z,0.00
2023-03-11T22:01:37.910Z,0.00
2023-03-11T22:04:05.158Z,0.10
2023-03-11T22:06:33.611Z,-0.10
2023-03-11T22:09:01.056Z,0.00
2023-03-11T22:11:28.153Z,-0.10
2023-03-11T22:13:57.330Z,0.00
2023-03-11T22:16:25.086Z,-0.10
2023-03-11T22:18:52.213Z,-0.10
2023-03-11T22:21:20.792Z,-0.10
2023-03-11T22:23:47.981Z,-0.10
2023-03-11T22:26:15.954Z,-0.10
2023-03-11T22:28:43.174Z,-0.20
2023-03-11T22:31:25.845Z,-0.20
2023-03-11T22:33:52.949Z,-0.20
2023-03-11T22:36:19.983Z,-0.20
2023-03-11T22:38:46.999Z,-0.20
2023-03-11T22:41:19.281Z,-0.20
2023-03-11T22:43:47.229Z,-0.20
2023-03-11T22:46:14.245Z,-0.20
2023-03-11T22:48:41.300Z,-0.20
2023-03-11T22:51:38.720Z,-0.20
2023-03-11T22:54:05.711Z,-0.30
2023-03-11T22:56:32.690Z,-0.30
2023-03-11T22:58:59.764Z,-0.30
2023-03-11T23:01:26.736Z,-0.30
2023-03-11T23:03:53.728Z,-0.30
2023-03-11T23:06:21.179Z,-0.30
2023-03-11T23:08:48.531Z,-0.30
2023-03-11T23:11:16.739Z,-0.30
2023-03-11T23:13:44.109Z,-0.30
2023-03-11T23:16:12.512Z,-0.30
2023-03-11T23:18:39.853Z,-0.30
2023-03-11T23:21:15.970Z,-0.30
2023-03-11T23:24:35.509Z,-0.30
2023-03-11T23:27:04.918Z,-0.30
2023-03-11T23:29:32.382Z,-0.30
2023-03-11T23:31:59.408Z,-0.30
2023-03-11T23:34:26.397Z,-0.30
2023-03-11T23:36:53.330Z,-0.30
2023-03-11T23:39:20.274Z,-0.30
2023-03-11T23:41:47.184Z,-0.30
2023-03-11T23:44:14.605Z,-0.40
2023-03-11T23:46:41.533Z,-0.40
2023-03-11T23:49:08.407Z,-0.40
2023-03-11T23:52:03.648Z,-0.30
2023-03-11T23:54:30.579Z,-0.40
2023-03-11T23:56:57.509Z,-0.40
2023-03-11T23:59:49.486Z,-0.50
